createdAt,value
2022-10-17T00:01:16.477Z,78.67
2022-10-17T00:04:31.515Z,79.03
2022-10-17T00:07:40.403Z,78.91
2022-10-17T00:10:58.864Z,78.51
2022-10-17T00:14:16.651Z,78.37
2022-10-17T00:17:25.281Z,77.12
2022-10-17T00:20:35.391Z,76.88
2022-10-17T00:23:44.515Z,77.45
2022-10-17T00:26:52.396Z,76.69
2022-10-17T00:30:01.068Z,76.46
2022-10-17T00:33:09.499Z,76.44
2022-10-17T00:36:22.845Z,76.78
2022-10-17T00:39:31.500Z,76.47
2022-10-17T00:42:39.914Z,76.84
2022-10-17T00:45:54.406Z,77.15
2022-10-17T00:48:58.649Z,76.79
2022-10-17T00:52:19.493Z,76.66
2022-10-17T00:55:27.152Z,76.72
2022-10-17T00:58:42.426Z,77.00
2022-10-17T01:01:57.139Z,77.18
2022-10-17T01:05:12.419Z,77.63
2022-10-17T01:08:21.411Z,77.94
2022-10-17T01:11:44.299Z,77.98
2022-10-17T01:15:20.420Z,78.22
2022-10-17T01:19:00.444Z,78.14
2022-10-17T01:22:21.032Z,78.45
2022-10-17T01:25:59.497Z,78.42
2022-10-17T01:29:23.238Z,78.36
2022-10-17T01:32:46.474Z,78.70
2022-10-17T01:36:12.496Z,78.50
2022-10-17T01:39:30.151Z,78.50
2022-10-17T01:42:58.537Z,78.57
2022-10-17T01:46:16.330Z,78.56
2022-10-17T01:49:31.464Z,78.52
2022-10-17T01:52:58.892Z,78.77
2022-10-17T01:56:03.804Z,78.61
2022-10-17T01:59:28.551Z,78.65
2022-10-17T02:02:38.516Z,78.86
2022-10-17T02:05:47.036Z,79.09
2022-10-17T02:08:57.538Z,79.02
2022-10-17T02:12:35.551Z,79.32
2022-10-17T02:16:04.582Z,79.25
2022-10-17T02:19:34.681Z,79.40
2022-10-17T02:22:54.488Z,79.63
2022-10-17T02:26:22.485Z,79.83
2022-10-17T02:29:37.480Z,79.98
2022-10-17T02:32:59.033Z,80.35
2022-10-17T02:36:13.474Z,80.48
2022-10-17T02:39:31.447Z,80.73
2022-10-17T02:42:35.019Z,80.81
2022-10-17T02:45:49.467Z,80.76
2022-10-17T02:48:55.542Z,80.82
2022-10-17T02:52:24.524Z,80.95
2022-10-17T02:55:34.075Z,81.12
2022-10-17T02:58:52.476Z,80.79
2022-10-17T03:02:05.129Z,80.68
2022-10-17T03:05:14.622Z,80.69
2022-10-17T03:08:24.019Z,80.68
2022-10-17T03:11:33.515Z,80.86
2022-10-17T03:14:48.727Z,81.02
2022-10-17T03:17:57.468Z,81.27
2022-10-17T03:21:12.491Z,81.15
2022-10-17T03:24:14.339Z,81.17
2022-10-17T03:27:29.681Z,81.22
2022-10-17T03:30:38.915Z,82.16
2022-10-17T03:33:47.582Z,82.26
2022-10-17T03:37:02.539Z,82.03
2022-10-17T03:40:11.283Z,81.87
2022-10-17T03:43:19.529Z,81.82
2022-10-17T03:46:34.560Z,81.94
2022-10-17T03:49:42.500Z,81.86
2022-10-17T03:52:51.159Z,81.40
2022-10-17T03:55:59.495Z,81.30
2022-10-17T03:59:19.534Z,81.35
2022-10-17T04:02:28.180Z,81.40
2022-10-17T04:05:42.536Z,81.18
2022-10-17T04:08:44.625Z,81.07
2022-10-17T04:11:59.711Z,80.96
2022-10-17T04:15:10.313Z,81.08
2022-10-17T04:18:25.537Z,81.19
2022-10-17T04:21:34.323Z,81.13
2022-10-17T04:24:49.560Z,81.39
2022-10-17T04:27:58.098Z,81.40
2022-10-17T04:31:08.501Z,81.13
2022-10-17T04:34:23.528Z,81.09
2022-10-17T04:37:32.325Z,81.04
2022-10-17T04:40:40.543Z,80.87
2022-10-17T04:43:55.528Z,81.16
2022-10-17T04:46:57.424Z,80.73
2022-10-17T04:50:13.526Z,80.25
2022-10-17T04:53:15.269Z,80.25
2022-10-17T04:56:31.562Z,80.25
2022-10-17T04:59:40.144Z,80.21
2022-10-17T05:02:48.590Z,80.92
2022-10-17T05:06:04.538Z,81.56
2022-10-17T05:09:06.217Z,81.90
2022-10-17T05:12:20.612Z,81.95
2022-10-17T05:15:35.539Z,82.48
2022-10-17T05:18:44.016Z,82.24
2022-10-17T05:21:52.577Z,82.18
2022-10-17T05:25:01.160Z,81.94
2022-10-17T05:28:09.515Z,82.01
2022-10-17T05:31:18.300Z,81.12
2022-10-17T05:34:26.619Z,80.63
2022-10-17T05:37:35.285Z,80.68
2022-10-17T05:40:53.750Z,80.43
2022-10-17T05:44:08.586Z,80.06
2022-10-17T05:47:24.568Z,79.95
2022-10-17T05:50:33.340Z,79.58
2022-10-17T05:53:48.632Z,79.68
2022-10-17T05:56:52.408Z,78.99
2022-10-17T06:00:09.648Z,78.68
2022-10-17T06:03:18.644Z,78.37
2022-10-17T06:06:36.878Z,78.29
2022-10-17T06:09:39.172Z,78.28
2022-10-17T06:12:53.626Z,77.63
2022-10-17T06:16:15.696Z,79.77
2022-10-17T06:19:24.280Z,76.54
2022-10-17T06:22:32.705Z,76.78
2022-10-17T06:25:41.255Z,72.11
2022-10-17T06:28:49.716Z,71.00
2022-10-17T06:32:06.344Z,73.13
2022-10-17T06:35:09.539Z,72.37
2022-10-17T06:38:24.627Z,68.39
2022-10-17T06:41:27.768Z,66.20
2022-10-17T06:44:42.615Z,67.14
2022-10-17T06:47:51.619Z,69.39
2022-10-17T06:51:01.471Z,66.37
2022-10-17T06:54:10.596Z,69.87
2022-10-17T06:57:25.812Z,67.68
2022-10-17T07:00:34.759Z,65.87
2022-10-17T07:03:43.233Z,66.61
2022-10-17T07:10:06.618Z,67.27
2022-10-17T07:13:28.623Z,66.04
2022-10-17T07:16:30.476Z,68.02
2022-10-17T07:19:45.589Z,65.86
2022-10-17T07:22:54.243Z,64.35
2022-10-17T07:26:12.631Z,67.24
2022-10-17T07:29:27.653Z,62.93
2022-10-17T07:32:35.810Z,63.44
2022-10-17T07:35:50.682Z,63.06
2022-10-17T07:38:55.845Z,62.24
2022-10-17T07:42:12.757Z,63.25
2022-10-17T07:45:21.683Z,62.01
2022-10-17T07:48:30.792Z,62.28
2022-10-17T07:55:01.655Z,61.07
2022-10-17T07:58:13.791Z,60.29
2022-10-17T08:01:35.658Z,63.01
2022-10-17T08:04:50.688Z,59.65
2022-10-17T08:07:52.824Z,59.88
2022-10-17T08:11:12.665Z,60.75
2022-10-17T08:14:14.964Z,64.85
2022-10-17T08:17:29.635Z,60.62
2022-10-17T08:20:31.467Z,60.22
2022-10-17T08:23:46.685Z,59.72
2022-10-17T08:26:54.655Z,58.91
2022-10-17T08:30:10.697Z,58.49
2022-10-17T08:33:19.630Z,58.32
2022-10-17T08:36:27.699Z,58.25
2022-10-17T08:39:36.264Z,58.30
2022-10-17T08:43:01.694Z,60.40
2022-10-17T08:46:10.938Z,57.95
2022-10-17T08:49:42.693Z,58.45
2022-10-17T08:53:09.011Z,61.40
2022-10-17T08:56:47.589Z,55.70
2022-10-17T08:59:56.712Z,54.95
2022-10-17T09:03:27.778Z,55.07
2022-10-17T09:06:43.752Z,54.85
2022-10-17T09:10:09.219Z,56.40
2022-10-17T09:13:43.686Z,53.94
2022-10-17T09:17:12.325Z,54.41
2022-10-17T09:20:33.677Z,55.29
2022-10-17T09:24:08.931Z,57.92
2022-10-17T09:27:41.754Z,55.34
2022-10-17T09:30:49.538Z,54.93
2022-10-17T09:34:08.679Z,54.13
2022-10-17T09:37:15.182Z,53.18
2022-10-17T09:40:37.690Z,51.12
2022-10-17T09:43:46.767Z,52.33
2022-10-17T09:47:25.111Z,50.33
2022-10-17T09:50:42.006Z,49.35
2022-10-17T09:53:55.703Z,47.88
2022-10-17T09:57:07.387Z,47.88
2022-10-17T10:00:32.766Z,53.22
2022-10-17T10:03:47.701Z,47.85
2022-10-17T10:07:09.742Z,47.30
2022-10-17T10:10:28.379Z,47.41
2022-10-17T10:13:37.699Z,47.57
2022-10-17T10:16:55.992Z,47.73
2022-10-17T10:20:08.740Z,46.57
2022-10-17T10:23:19.180Z,45.70
2022-10-17T10:26:33.736Z,45.24
2022-10-17T10:29:56.720Z,44.61
2022-10-17T10:33:05.392Z,44.78
2022-10-17T10:36:14.765Z,44.97
2022-10-17T10:39:32.834Z,43.76
2022-10-17T10:42:45.775Z,43.75
2022-10-17T10:46:00.754Z,44.42
2022-10-17T10:49:02.730Z,43.64
2022-10-17T10:52:28.738Z,43.53
2022-10-17T10:55:46.780Z,42.40
2022-10-17T10:59:09.759Z,42.58
2022-10-17T11:02:31.421Z,42.79
2022-10-17T11:05:52.738Z,42.91
2022-10-17T11:09:33.758Z,42.11
2022-10-17T11:12:49.955Z,44.96
2022-10-17T11:16:24.782Z,45.00
2022-10-17T11:19:56.955Z,42.76
2022-10-17T11:23:14.419Z,41.39
2022-10-17T11:26:40.760Z,27.27
2022-10-17T11:29:49.381Z,23.83
2022-10-17T11:33:05.783Z,20.98
2022-10-17T11:36:24.771Z,20.07
2022-10-17T11:39:55.846Z,18.53
2022-10-17T11:43:27.912Z,17.51
2022-10-17T11:46:37.554Z,18.66
2022-10-17T11:51:59.919Z,17.83
2022-10-17T11:53:44.804Z,17.24
2022-10-17T11:57:03.960Z,16.82
2022-10-17T12:00:42.134Z,17.32
2022-10-17T12:04:02.736Z,19.20
2022-10-17T12:07:44.865Z,17.68
2022-10-17T12:10:58.988Z,17.31
2022-10-17T12:14:58.835Z,16.92
2022-10-17T12:18:24.852Z,18.20
2022-10-17T12:21:59.883Z,17.26
2022-10-17T12:25:09.847Z,17.64
2022-10-17T12:28:39.319Z,16.39
2022-10-17T12:31:49.899Z,17.68
2022-10-17T12:34:58.760Z,18.51
2022-10-17T12:38:27.808Z,18.21
2022-10-17T12:42:02.941Z,20.10
2022-10-17T12:45:40.863Z,20.07
2022-10-17T12:49:03.650Z,21.76
2022-10-17T12:52:28.898Z,20.24
2022-10-17T12:55:46.845Z,20.80
2022-10-17T12:58:51.254Z,21.54
2022-10-17T13:02:09.908Z,20.96
2022-10-17T13:05:25.887Z,22.65
2022-10-17T13:08:46.815Z,25.02
2022-10-17T13:11:57.912Z,27.06
2022-10-17T13:15:18.507Z,29.42
2022-10-17T13:18:33.949Z,31.94
2022-10-17T13:22:02.266Z,34.03
2022-10-17T13:25:23.864Z,34.76
2022-10-17T13:28:25.685Z,36.95
2022-10-17T13:31:43.966Z,38.44
2022-10-17T13:35:10.635Z,39.37
2022-10-17T13:41:40.887Z,39.00
2022-10-17T13:44:43.597Z,39.85
2022-10-17T13:47:57.965Z,37.54
2022-10-17T13:51:11.085Z,40.47
2022-10-17T13:54:35.046Z,37.65
2022-10-17T13:57:50.988Z,38.27
2022-10-17T14:00:53.576Z,38.69
2022-10-17T14:04:19.454Z,38.44
2022-10-17T14:08:10.094Z,38.62
2022-10-17T14:11:32.307Z,39.16
2022-10-17T14:15:13.833Z,39.73
2022-10-17T14:18:39.985Z,39.17
2022-10-17T14:21:44.681Z,40.00
2022-10-17T14:25:02.639Z,40.55
2022-10-17T14:28:19.019Z,40.14
2022-10-17T14:31:34.920Z,40.09
2022-10-17T14:34:43.825Z,40.38
2022-10-17T14:37:54.908Z,39.98
2022-10-17T14:41:41.265Z,40.47
2022-10-17T14:44:47.954Z,41.03
2022-10-17T14:47:58.906Z,41.03
2022-10-17T14:51:10.268Z,41.38
2022-10-17T14:54:28.895Z,41.22
2022-10-17T14:57:46.098Z,41.81
2022-10-17T15:00:54.913Z,41.83
2022-10-17T15:04:03.802Z,42.15
2022-10-17T15:07:11.887Z,43.10
2022-10-17T15:10:37.931Z,43.25
2022-10-17T15:13:46.000Z,43.58
2022-10-17T15:17:07.932Z,43.90
2022-10-17T15:20:14.963Z,43.89
2022-10-17T15:23:29.978Z,43.66
2022-10-17T15:26:41.010Z,43.62
2022-10-17T15:29:50.410Z,46.50
2022-10-17T15:32:59.005Z,45.87
2022-10-17T15:36:32.916Z,45.38
2022-10-17T15:39:40.932Z,46.84
2022-10-17T15:42:55.968Z,46.23
2022-10-17T15:46:00.292Z,49.67
2022-10-17T15:49:20.988Z,46.67
2022-10-17T15:52:30.988Z,46.84
2022-10-17T15:55:46.004Z,47.49
2022-10-17T15:58:48.033Z,47.07
2022-10-17T16:02:03.004Z,48.39
2022-10-17T16:05:14.307Z,49.34
2022-10-17T16:08:28.966Z,46.62
2022-10-17T16:11:41.057Z,46.80
2022-10-17T16:14:51.969Z,46.68
2022-10-17T16:18:08.574Z,46.97
2022-10-17T16:21:20.042Z,47.13
2022-10-17T16:24:28.572Z,47.36
2022-10-17T16:27:37.010Z,47.55
2022-10-17T16:30:46.440Z,48.20
2022-10-17T16:33:56.023Z,50.40
2022-10-17T16:37:04.580Z,53.57
2022-10-17T16:40:13.012Z,49.34
2022-10-17T16:43:32.128Z,49.39
2022-10-17T16:46:42.986Z,49.99
2022-10-17T16:49:58.081Z,50.35
2022-10-17T16:53:08.204Z,50.66
2022-10-17T16:56:25.001Z,51.22
2022-10-17T16:59:34.020Z,51.66
2022-10-17T17:02:42.859Z,51.93
2022-10-17T17:05:56.983Z,52.43
2022-10-17T17:09:05.680Z,52.89
2022-10-17T17:12:15.009Z,53.60
2022-10-17T17:15:30.241Z,52.84
2022-10-17T17:18:39.004Z,53.19
2022-10-17T17:21:54.572Z,53.63
2022-10-17T17:25:02.996Z,53.66
2022-10-17T17:28:11.624Z,53.54
2022-10-17T17:31:24.075Z,53.13
2022-10-17T17:34:42.993Z,53.48
2022-10-17T17:37:57.988Z,53.00
2022-10-17T17:40:59.783Z,53.29
2022-10-17T17:44:16.549Z,53.79
2022-10-17T17:47:25.996Z,52.99
2022-10-17T17:50:37.107Z,53.04
2022-10-17T17:53:46.023Z,53.43
2022-10-17T17:56:54.620Z,53.41
2022-10-17T18:00:03.113Z,53.68
2022-10-17T18:03:11.938Z,53.53
2022-10-17T18:06:21.100Z,53.63
2022-10-17T18:09:29.796Z,54.16
2022-10-17T18:12:39.055Z,54.23
2022-10-17T18:16:05.077Z,54.90
2022-10-17T18:19:10.519Z,55.87
2022-10-17T18:22:25.069Z,56.32
2022-10-17T18:25:26.911Z,56.66
2022-10-17T18:28:44.079Z,56.15
2022-10-17T18:31:52.128Z,56.27
2022-10-17T18:35:08.088Z,57.12
2022-10-17T18:38:10.190Z,57.24
2022-10-17T18:41:27.104Z,57.81
2022-10-17T18:44:28.966Z,58.17
2022-10-17T18:47:44.066Z,58.33
2022-10-17T18:50:52.696Z,58.16
2022-10-17T18:54:03.103Z,58.11
2022-10-17T18:57:20.424Z,57.95
2022-10-17T19:00:27.887Z,58.75
2022-10-17T19:03:45.085Z,59.00
2022-10-17T19:06:46.822Z,58.99
2022-10-17T19:10:01.030Z,59.70
2022-10-17T19:13:03.257Z,59.73
2022-10-17T19:16:22.066Z,60.25
2022-10-17T19:19:37.107Z,60.45
2022-10-17T19:22:38.868Z,60.84
2022-10-17T19:25:55.912Z,61.52
2022-10-17T19:29:00.329Z,61.68
2022-10-17T19:32:17.945Z,61.16
2022-10-17T19:35:22.571Z,61.95
2022-10-17T19:38:37.084Z,61.36
2022-10-17T19:41:41.805Z,61.94
2022-10-17T19:44:56.136Z,61.01
2022-10-17T19:48:07.096Z,61.58
2022-10-17T19:51:17.186Z,61.46
2022-10-17T19:54:25.105Z,61.76
2022-10-17T19:57:33.672Z,61.66
2022-10-17T20:00:43.188Z,61.59
2022-10-17T20:03:52.206Z,61.79
2022-10-17T20:07:00.148Z,62.03
2022-10-17T20:10:09.192Z,61.99
2022-10-17T20:13:18.080Z,62.44
2022-10-17T20:16:36.684Z,62.36
2022-10-17T20:19:45.157Z,62.77
2022-10-17T20:22:59.072Z,62.42
2022-10-17T20:26:26.000Z,62.90
2022-10-17T20:29:46.124Z,63.25
2022-10-17T20:32:47.888Z,62.77
2022-10-17T20:36:02.110Z,62.43
2022-10-17T20:39:05.066Z,62.19
2022-10-17T20:42:21.181Z,63.54
2022-10-17T20:45:37.377Z,64.26
2022-10-17T20:49:01.131Z,64.31
2022-10-17T20:52:03.045Z,64.29
2022-10-17T20:55:18.158Z,65.04
2022-10-17T20:58:20.027Z,64.19
2022-10-17T21:01:37.190Z,64.81
2022-10-17T21:04:47.152Z,64.72
2022-10-17T21:08:02.143Z,65.11
2022-10-17T21:11:14.504Z,65.34
2022-10-17T21:14:31.120Z,65.54
2022-10-17T21:17:46.435Z,66.12
2022-10-17T21:20:55.212Z,66.92
2022-10-17T21:24:07.662Z,67.29
2022-10-17T21:27:22.136Z,68.56
2022-10-17T21:30:37.136Z,68.88
2022-10-17T21:33:50.127Z,69.51
2022-10-17T21:36:59.307Z,69.70
2022-10-17T21:40:11.047Z,70.19
2022-10-17T21:43:21.139Z,70.35
2022-10-17T21:46:30.540Z,70.62
2022-10-17T21:49:39.170Z,70.84
2022-10-17T21:52:47.712Z,71.03
2022-10-17T21:56:06.184Z,71.20
2022-10-17T21:59:15.231Z,71.46
2022-10-17T22:02:23.828Z,71.96
2022-10-17T22:05:38.143Z,71.79
2022-10-17T22:08:54.231Z,71.72
2022-10-17T22:12:03.195Z,72.14
2022-10-17T22:15:18.170Z,72.23
2022-10-17T22:18:33.296Z,72.16
2022-10-17T22:21:48.228Z,72.29
2022-10-17T22:24:56.984Z,72.51
2022-10-17T22:28:05.211Z,72.49
2022-10-17T22:31:20.146Z,72.57
2022-10-17T22:34:21.864Z,72.37
2022-10-17T22:37:36.189Z,71.99
2022-10-17T22:40:52.182Z,71.86
2022-10-17T22:43:53.992Z,71.99
2022-10-17T22:47:09.164Z,72.62
2022-10-17T22:50:11.086Z,72.43
2022-10-17T22:53:27.206Z,71.99
2022-10-17T22:56:35.743Z,72.14
2022-10-17T22:59:50.267Z,72.46
2022-10-17T23:02:59.116Z,71.78
2022-10-17T23:06:16.657Z,71.76
2022-10-17T23:12:36.119Z,71.79
2022-10-17T23:15:44.217Z,71.81
2022-10-17T23:18:53.832Z,71.86
2022-10-17T23:22:09.398Z,72.07
2022-10-17T23:25:11.264Z,72.11
2022-10-17T23:28:26.232Z,72.08
2022-10-17T23:31:34.840Z,72.27
2022-10-17T23:34:43.235Z,72.50
2022-10-17T23:37:51.792Z,72.38
2022-10-17T23:41:00.206Z,72.66
2022-10-17T23:44:10.746Z,72.55
2022-10-17T23:47:19.228Z,71.67
2022-10-17T23:50:35.275Z,71.47
2022-10-17T23:53:39.659Z,71.21
2022-10-17T23:56:54.247Z,71.11
